Kansas City Johnson County Executive Airport

About
Name: Kansas City Johnson County Executive Airport
Identifier:  OJC/KOJC
Local Time:  22. Sep 05:31 CDT
Location
Kansas City
  United States

Statistics
Flights per Day:
0 flights
Distance: 204km (127mi)
Flights delayed:
0% (0 flights per day delayed)
Delay Average: 18 minutes
Current Weather
 19 C (Humidity: 100%)
  5kt (9km/h / 5mph) from 40°
  Overcast at 900 feet (274 meter)
  8km (5 mi.)
 Mist
 METAR KOJC 221007Z AUTO 04005KT 5SM RA BR OVC009 19/19 A2991 RMK AO2 LTG DSNT S CIG 006V015 P0003 T01940194

Current Delays

Departures
N/A
Arrivals
N/A

Destinations

Top Destinations
Airport Flights
per week
Seats
per week
  Lincoln (LNK) 0 - 0 0
  Kansas City (MCI) 0 - 0 0

Airlines & Planes

Top Airlines
Airline Flights
per Day
Seats
per Day
Nordwind Airlines 0 -
Top Plane Types
Model Flights Seats
Piper PA-46-350P Malibu Mirage 0.1/day - 0